Pagina principale
METAR-TAF:

METAR-TAF

Aeroporti :

Funafuti, Tuvalu

latitudine: 08-31S, longitudine: 179-13E, altezza: 1 m

Osservazione

Il bollettino è stato emesso 57 minuti fa, alle 00:00 UTC
Vento 6 kt da est/sud-est
Temperature 31°C
Umidità 75%
Pressione 1010 hPa
Visibilità 10 km o più
Poco nuvoloso ad un'altezza di 1600 ft, Cumulonembo.
Poco nuvoloso ad un'altezza di 1800 ft, Cumulo congesto.

METAR: NGFU 160000Z 11006KT 9999 FEW016CB FEW018TCU 31/26 Q1010 RMK CB TO S

Ora: 12:57 (00:57 UTC)

Previsione

Il bollettino è stato emesso 1 ora e 49 minuti fa, alle 23:08 UTC
Previsione valida dal 16 alle 00 UTC al 16 alle 24 UTC
Vento 9 kt da est/sud-est
Visibilità 10 km o più
Nubi sparse ad un'altezza di 1800 ft

TAF: NGFU 152308Z 1600/1624 11009KT 9999 SCT018

Osservazioni e previsioni meteorologiche di più di 4000 aeroporti (messaggi METAR e TAF).

Le stazioni disponibili sono rappresentate dai dischi gialli e rossi sulla carta.

Puntare il mouse per vedere il nome della stazione.

Clicca sopra per visualizzare le osservazioni e previsioni meteorologiche.

Per cambiare la mappa : fare clic sui pulsanti verdi con una croce nera per ingrandire, il pulsante verde con un trattino per diminuire, o sulla freccia verde per le mappe adiacenti.


METAR-TAF: